Latest Weather Observations for Ballarat

IDV60801

Issued at 8:05 am EDT Tuesday 21 October 2014 (issued every 30 minutes, with the page automatically refreshed every 10 minutes)

About weather observations | Map of weather stations | Latest weather observations for VIC | Other Formats
Station Details ID: 089002 Name: BALLARAT AERODROME Lat: -37.51 Lon: 143.79 Height: 435.2 m
Data from the previous 72 hours. | See also: Recent months at Ballarat
Date/Time
EDT
Temp
°C
App
Temp
°C
Dew
Point
Rel
Hum
%
Delta-T
°C
Wind Press
QNH
hPa
Press
MSL
hPa
Rain
since 9 am
mm
Dir
 
Spd
km/h
Gust
km/h
Spd
kts
Gust
kts
21/08:00am 11.9 5.5 8.7 81 1.6 NNE 32 41 17 22 1026.2 1026.2 0.0
21/07:30am 11.0 5.5 9.1 88 1.0 NNE 28 33 15 18 1026.0 1026.0 0.0
21/07:00am 9.1 5.3 9.0 99 0.0 NNE 19 28 10 15 1025.6 1025.6 0.0
21/06:57am 8.1 4.4 8.0 99 0.0 NNE 17 28 9 15 1025.6 1025.6 0.0
21/06:30am 3.1 0.4 2.8 98 0.1 NNE 6 7 3 4 1025.5 1025.5 0.0
21/06:00am 2.7 1.1 2.4 98 0.1 SE 0 0 0 0 1025.0 1025.0 0.0
21/05:30am 4.3 1.8 4.0 98 0.1 ESE 6 7 3 4 1024.9 1024.9 0.0
21/05:00am 4.9 2.4 4.6 98 0.1 ESE 7 13 4 7 1024.9 1024.9 0.0
21/04:30am 5.7 1.5 5.6 99 0.0 ESE 17 19 9 10 1024.9 1024.9 0.0
21/04:00am 5.7 1.9 5.6 99 0.0 ESE 15 20 8 11 1024.9 1024.9 0.0
21/03:30am 5.5 2.0 5.4 99 0.0 ESE 13 17 7 9 1025.3 1025.3 0.0
21/03:00am 6.2 1.5 5.9 98 0.1 SE 20 26 11 14 1025.5 1025.5 0.0
21/02:30am 6.3 1.2 6.0 98 0.1 SE 22 30 12 16 1025.5 1025.5 0.0
21/02:00am 6.7 1.3 6.4 98 0.1 SE 24 30 13 16 1025.8 1025.8 0.0
21/01:30am 7.0 1.7 6.7 98 0.1 SE 24 35 13 19 1026.1 1026.1 0.0
21/01:00am 7.3 1.7 7.0 98 0.1 ESE 26 33 14 18 1026.4 1026.4 0.0
21/12:30am 7.6 0.7 7.3 98 0.1 SE 33 44 18 24 1026.2 1026.2 0.0
21/12:00am 8.0 0.4 7.4 96 0.3 ESE 37 54 20 29 1026.2 1026.2 0.0
 
Date/Time
EDT
Temp
°C
App
Temp
°C
Dew
Point
Rel
Hum
%
Delta-T
°C
Wind Press
QNH
hPa
Press
MSL
hPa
Rain
since 9 am
mm
Dir
 
Spd
km/h
Gust
km/h
Spd
kts
Gust
kts
20/11:30pm 8.4 1.5 7.2 92 0.6 ESE 33 44 18 24 1026.7 1026.7 0.0
20/11:00pm 8.9 2.2 7.2 89 0.8 ESE 32 43 17 23 1026.8 1026.8 0.0
20/10:30pm 9.5 2.9 7.8 89 0.8 ESE 32 46 17 25 1026.9 1026.9 0.0
20/10:00pm 9.4 3.8 8.9 97 0.2 SE 28 39 15 21 1026.9 1026.9 0.0
20/09:30pm 9.8 3.6 9.2 96 0.3 SE 32 44 17 24 1027.0 1027.0 0.0
20/09:00pm 10.0 4.8 8.8 92 0.6 SE 26 41 14 22 1027.0 1027.0 0.0
20/08:30pm 10.6 4.9 8.5 87 1.1 SE 28 37 15 20 1027.0 1027.0 0.0
20/08:00pm 11.3 5.5 8.0 80 1.6 SE 28 35 15 19 1026.8 1026.8 0.0
20/07:30pm 11.8 5.5 7.3 74 2.2 SE 30 39 16 21 1026.6 1026.6 0.0
20/07:00pm 13.1 6.3 6.9 66 3.0 SE 32 41 17 22 1026.7 1026.7 0.0
20/06:30pm 13.8 6.9 6.4 61 3.6 SE 32 43 17 23 1026.7 1026.7 0.0
20/06:00pm 14.6 7.9 5.4 54 4.4 SE 30 43 16 23 1026.6 1026.6 0.0
20/05:30pm 15.9 8.6 4.6 47 5.4 SE 32 44 17 24 1026.6 1026.6 0.0
20/05:00pm 15.4 7.3 3.2 44 5.6 SE 35 46 19 25 1026.6 1026.6 0.0
20/04:30pm 15.7 7.6 3.2 43 5.8 SE 35 44 19 24 1026.7 1026.7 0.0
20/04:00pm 16.2 8.2 3.9 44 5.8 SE 35 44 19 24 1026.8 1026.8 0.0
20/03:30pm 15.6 7.7 2.1 40 6.1 ESE 33 44 18 24 1027.1 1027.1 0.0
20/03:00pm 15.6 7.4 2.7 42 5.9 SE 35 46 19 25 1027.1 1027.1 0.0
20/02:30pm 15.3 6.8 1.1 38 6.3 ESE 35 46 19 25 1027.3 1027.3 0.0
20/02:00pm 15.1 7.3 1.6 40 6.0 SE 32 46 17 25 1027.9 1027.9 0.0
20/01:30pm 15.2 7.4 3.0 44 5.6 SE 33 44 18 24 1028.0 1028.0 0.0
20/01:00pm 14.3 6.4 2.2 44 5.4 ESE 33 46 18 25 1028.3 1028.3 0.0
20/12:30pm 13.8 5.8 1.8 44 5.3 SE 33 48 18 26 1028.4 1028.4 0.0
20/12:00pm 13.4 5.6 2.6 48 4.8 ESE 33 43 18 23 1028.8 1028.8 0.0
20/11:30am 12.5 4.6 2.4 50 4.5 SE 33 48 18 26 1029.0 1029.0 0.0
20/11:00am 12.0 3.9 1.3 48 4.6 SE 33 44 18 24 1029.2 1029.2 0.0
20/10:30am 11.1 2.1 -0.1 46 4.7 SE 37 50 20 27 1029.0 1029.0 0.0
20/10:00am 10.9 2.4 3.2 59 3.4 SE 37 52 20 28 1028.6 1028.6 0.0
20/09:55am 10.1 0.7 2.2 58 3.4 SE 41 59 22 32 1028.6 1028.6 0.0
20/09:30am 9.5 -0.7 3.3 65 2.7 SE 46 59 25 32 1028.4 1028.4 0.0
20/09:01am 9.1 -0.6 4.1 71 2.3 SE 44 63 24 34 1028.3 1028.3 0.0
20/09:00am 9.0 -1.1 4.0 71 2.2 SE 46 63 25 34 1028.3 1028.3 0.0
20/08:52am 8.4 -1.4 3.5 71 2.2 SE 44 63 24 34 1028.2 1028.2 0.0
20/08:30am 8.2 -2.3 3.7 73 2.0 SE 48 63 26 34 1027.9 1027.9 0.0
20/08:02am 7.8 -1.9 3.7 75 1.8 SE 44 63 24 34 1027.3 1027.3 0.0
20/08:00am 7.7 -2.5 3.4 74 1.9 SE 46 63 25 34 1027.2 1027.2 0.0
20/07:30am 7.3 -2.2 3.7 78 1.6 SE 43 59 23 32 1026.9 1026.9 0.0
20/07:00am 7.0 -2.5 4.8 86 1.0 SE 44 65 24 35 1026.6 1026.6 0.0
20/06:46am 6.9 -1.9 5.7 92 0.6 SE 41 59 22 32 1026.5 1026.5 0.0
20/06:30am 6.7 -2.2 5.2 90 0.7 SE 41 57 22 31 1026.4 1026.4 0.0
20/06:00am 6.8 -2.3 3.8 81 1.3 SE 41 57 22 31 1026.4 1026.4 0.0
20/05:31am 7.0 -1.4 5.5 90 0.7 SE 39 57 21 31 1026.3 1026.3 0.0
20/05:30am 7.0 -1.8 5.5 90 0.7 SE 41 57 22 31 1026.3 1026.3 0.0
20/05:16am 7.1 -1.7 5.4 89 0.8 SE 41 59 22 32 1026.2 1026.2 0.0
20/05:00am 7.1 -2.4 5.1 87 0.9 SE 44 59 24 32 1026.0 1026.0 0.0
20/04:30am 7.5 -2.3 5.1 85 1.1 SE 46 57 25 31 1026.0 1026.0 0.0
20/04:06am 7.8 -0.5 5.9 88 0.9 SE 39 57 21 31 1026.1 1026.1 0.0
20/04:00am 7.9 -0.4 6.2 89 0.8 SE 39 56 21 30 1026.1 1026.1 0.0
20/03:48am 8.1 1.0 6.2 88 0.9 SE 33 52 18 28 1026.2 1026.2 0.0
20/03:30am 8.2 0.8 6.7 90 0.7 SSE 35 48 19 26 1026.4 1026.4 0.0
20/03:15am 8.1 0.7 6.6 90 0.7 SSE 35 57 19 31 1026.4 1026.4 0.0
20/03:00am 8.0 0.3 7.1 94 0.4 SSE 37 50 20 27 1026.5 1026.5 0.0
20/02:30am 8.2 1.1 7.9 98 0.1 SSE 35 50 19 27 1026.6 1026.6 0.0
20/02:00am 8.4 0.6 8.1 98 0.1 SSE 39 50 21 27 1026.7 1026.7 0.0
20/01:30am 8.2 0.7 8.1 99 0.0 SSE 37 50 20 27 1026.9 1026.9 0.0
20/01:16am 8.2 1.1 8.1 99 0.0 SSE 35 48 19 26 1027.1 1027.1 0.0
20/01:00am 8.6 2.2 8.5 99 0.0 SSE 32 44 17 24 1027.2 1027.2 0.0
20/12:54am 8.7 2.1 8.6 99 0.0 SSE 33 41 18 22 1027.2 1027.2 0.0
20/12:37am 8.8 2.4 8.7 99 0.0 SSE 32 46 17 25 1027.3 1027.3 0.0
20/12:30am 8.8 2.4 8.7 99 0.0 SSE 32 46 17 25 1027.3 1027.3 0.0
20/12:13am 9.1 3.2 9.0 99 0.1 SSE 30 44 16 24 1027.4 1027.5 0.0
20/12:00am 9.5 3.3 9.4 99 0.1 SSE 32 46 17 25 1027.3 1027.3 0.0
 
Date/Time
EDT
Temp
°C
App
Temp
°C
Dew
Point
Rel
Hum
%
Delta-T
°C
Wind Press
QNH
hPa
Press
MSL
hPa
Rain
since 9 am
mm
Dir
 
Spd
km/h
Gust
km/h
Spd
kts
Gust
kts
19/11:30pm 10.5 4.9 10.0 97 0.3 SSE 30 43 16 23 1027.1 1027.1 0.0
19/11:27pm 10.6 5.3 9.7 94 0.5 SSE 28 43 15 23 1027.2 1027.2 0.0
19/11:00pm 10.5 3.7 9.1 91 0.7 S 35 50 19 27 1026.9 1026.9 0.0
19/10:52pm 10.5 4.2 9.1 91 0.7 S 32 50 17 27 1026.7 1026.7 0.0
19/10:30pm 10.6 5.6 9.4 92 0.6 SSE 26 37 14 20 1026.8 1026.8 0.0
19/10:00pm 10.8 5.4 9.4 91 0.7 S 28 33 15 18 1027.0 1027.0 0.0
19/09:30pm 11.0 5.5 9.1 88 1.0 S 28 35 15 19 1026.6 1026.6 0.0
19/09:00pm 11.8 7.0 10.2 90 0.8 S 26 33 14 18 1026.9 1026.9 0.0
19/08:30pm 12.0 7.7 10.6 91 0.7 S 24 32 13 17 1025.8 1025.8 0.0
19/08:00pm 12.4 9.0 11.1 92 0.7 S 20 26 11 14 1025.1 1025.1 0.0
19/07:30pm 12.7 8.3 10.4 86 1.2 S 24 33 13 18 1024.6 1024.6 0.0
19/07:00pm 13.2 9.2 10.6 84 1.4 SSW 22 32 12 17 1024.4 1024.4 0.0
19/06:30pm 13.5 9.7 11.2 86 1.2 S 22 33 12 18 1023.9 1023.9 0.0
19/06:00pm 15.6 11.9 11.6 77 2.2 SSW 22 33 12 18 1023.5 1023.5 0.0
19/05:30pm 18.3 15.3 12.5 69 3.3 SSW 20 30 11 16 1022.4 1022.4 0.0
19/05:00pm 19.9 16.4 12.2 61 4.4 SSW 22 35 12 19 1021.6 1021.6 0.0
19/04:30pm 21.4 19.1 13.1 59 4.8 S 17 24 9 13 1020.8 1020.7 0.0
19/04:00pm 22.8 19.8 12.4 52 6.0 SSW 20 32 11 17 1020.6 1020.5 0.0
19/03:30pm 26.5 22.3 5.5 26 11.0 NNW 17 28 9 15 1020.0 1020.0 0.0
19/03:00pm 26.3 21.1 5.3 26 10.9 N 22 30 12 16 1020.2 1020.2 0.0
19/02:30pm 25.3 19.8 6.0 29 10.1 N 24 30 13 16 1020.9 1020.8 0.0
19/02:00pm 24.2 17.4 5.1 29 9.8 N 30 39 16 21 1021.2 1021.1 0.0
19/01:30pm 23.2 16.3 4.7 30 9.4 N 30 39 16 21 1021.3 1021.2 0.0
19/01:00pm 21.9 15.8 4.9 33 8.5 N 26 35 14 19 1021.8 1021.8 0.0
19/12:30pm 21.2 14.0 5.1 35 8.1 N 32 44 17 24 1021.9 1021.9 0.0
19/12:00pm 21.5 13.8 5.4 35 8.1 N 35 46 19 25 1021.9 1021.9 0.0
19/11:30am 19.7 11.9 5.0 38 7.3 N 35 43 19 23 1022.1 1022.1 0.0
19/11:00am 19.2 11.6 5.6 41 6.8 N 35 44 19 24 1022.3 1022.3 0.0
19/10:30am 17.9 10.1 4.8 42 6.4 N 35 44 19 24 1022.5 1022.5 0.0
19/10:00am 16.6 8.4 2.6 39 6.5 N 35 48 19 26 1022.6 1022.6 0.0
19/09:30am 16.7 8.5 4.7 45 5.8 N 37 50 20 27 1022.6 1022.6 0.0
19/09:00am 15.8 7.9 4.5 47 5.4 N 35 43 19 23 1022.8 1022.8 0.0
19/08:30am 15.2 8.2 4.0 47 5.3 N 30 39 16 21 1023.0 1022.9 0.0
19/08:00am 15.0 7.9 3.8 47 5.2 N 30 37 16 20 1023.1 1023.0 0.0
19/07:30am 14.1 6.6 3.6 49 4.9 N 32 41 17 22 1022.4 1022.4 0.0
19/07:00am 13.8 6.3 3.3 49 4.8 N 32 41 17 22 1022.0 1022.0 0.0
19/06:30am 13.9 6.7 3.1 48 5.0 N 30 41 16 22 1021.6 1021.6 0.0
19/06:00am 13.8 7.0 3.3 49 4.8 N 28 35 15 19 1021.6 1021.6 0.0
19/05:30am 13.5 7.2 3.6 51 4.6 N 26 35 14 19 1021.5 1021.5 0.0
19/05:00am 13.1 8.2 4.0 54 4.2 N 19 26 10 14 1021.7 1021.7 0.0
19/04:30am 13.4 8.0 4.3 54 4.3 N 22 32 12 17 1021.8 1021.8 0.0
19/04:00am 13.4 7.6 4.3 54 4.2 N 24 28 13 15 1021.9 1021.9 0.0
19/03:30am 13.8 7.9 4.1 52 4.5 N 24 32 13 17 1022.1 1022.1 0.0
19/03:00am 14.3 8.5 4.6 52 4.6 N 24 32 13 17 1022.2 1022.2 0.0
19/02:30am 15.1 8.8 3.9 47 5.3 N 26 33 14 18 1022.4 1022.4 0.0
19/02:00am 16.3 9.6 3.4 42 6.0 N 28 37 15 20 1022.5 1022.5 0.0
19/01:30am 16.4 10.1 3.5 42 6.1 N 26 35 14 19 1022.7 1022.7 0.0
19/01:00am 16.8 10.0 3.1 40 6.4 N 28 35 15 19 1022.5 1022.5 0.0
19/12:30am 17.0 10.6 3.3 40 6.5 NNE 26 32 14 17 1022.6 1022.6 0.0
19/12:00am 16.8 10.0 3.1 40 6.4 NNE 28 39 15 21 1022.7 1022.7 0.0
 
Date/Time
EDT
Temp
°C
App
Temp
°C
Dew
Point
Rel
Hum
%
Delta-T
°C
Wind Press
QNH
hPa
Press
MSL
hPa
Rain
since 9 am
mm
Dir
 
Spd
km/h
Gust
km/h
Spd
kts
Gust
kts
18/11:30pm 17.1 10.3 3.1 39 6.6 NNE 28 37 15 20 1022.6 1022.6 0.0
18/11:00pm 16.6 9.8 3.3 41 6.2 NNE 28 35 15 19 1023.0 1022.9 0.0
18/10:30pm 16.6 10.1 2.6 39 6.5 NNE 26 33 14 18 1023.2 1023.1 0.0
18/10:00pm 17.2 10.5 1.6 35 7.1 NNE 26 33 14 18 1023.4 1023.3 0.0
18/09:30pm 17.0 10.7 1.8 36 7.0 NNE 24 32 13 17 1023.6 1023.6 0.0
18/09:00pm 17.9 12.0 1.4 33 7.5 NNE 22 30 12 16 1023.7 1023.7 0.0
18/08:30pm 17.6 11.7 2.0 35 7.2 NNE 22 28 12 15 1023.5 1023.5 0.0
18/08:00pm 18.0 11.5 2.7 36 7.2 N 26 33 14 18 1023.2 1023.1 0.0
18/07:30pm 18.2 12.6 3.7 38 7.0 NNE 22 28 12 15 1023.1 1023.0 0.0
18/07:00pm 18.2 13.1 4.0 39 6.8 N 20 24 11 13 1023.1 1023.0 0.0
18/06:30pm 19.1 14.1 4.8 39 7.1 N 20 24 11 13 1022.7 1022.7 0.0
18/06:00pm 20.3 14.5 4.4 35 7.8 N 24 30 13 16 1022.7 1022.7 0.0
18/05:30pm 20.4 14.8 5.6 38 7.5 N 24 30 13 16 1022.4 1022.4 0.0
18/05:00pm 20.6 15.2 4.6 35 7.9 N 22 30 12 16 1022.5 1022.5 0.0
18/04:30pm 20.6 15.1 5.8 38 7.5 N 24 32 13 17 1022.4 1022.4 0.0
18/04:00pm 19.9 13.6 4.0 35 7.7 N 26 33 14 18 1022.7 1022.7 0.0
18/03:30pm 20.6 14.9 5.0 36 7.8 N 24 33 13 18 1023.1 1023.0 0.0
18/03:00pm 19.9 13.6 4.0 35 7.7 N 26 33 14 18 1023.2 1023.1 0.0
18/02:30pm 20.4 14.2 4.4 35 7.9 N 26 35 14 19 1024.2 1024.2 0.0
18/02:00pm 19.9 13.0 4.8 37 7.5 N 30 41 16 22 1024.1 1024.1 0.0
18/01:30pm 19.1 12.2 4.5 38 7.2 N 30 41 16 22 1024.3 1024.3 0.0
18/01:00pm 19.2 12.4 5.3 40 6.9 N 30 39 16 21 1024.9 1024.9 0.0
18/12:30pm 19.1 12.8 5.9 42 6.7 N 28 35 15 19 1025.3 1025.3 0.0
18/12:00pm 18.2 11.7 4.7 41 6.6 N 28 35 15 19 1026.4 1026.4 0.0
18/11:30am 17.8 11.3 6.3 47 5.8 N 30 37 16 20 1026.2 1026.2 0.0
18/11:00am 17.2 10.3 4.5 43 6.1 N 30 35 16 19 1026.3 1026.3 0.0
18/10:30am 16.1 9.6 4.8 47 5.5 N 28 39 15 21 1026.6 1026.6 0.0
18/10:00am 15.7 10.1 5.6 51 4.9 N 24 33 13 18 1026.4 1026.4 0.0
18/09:30am 15.6 10.2 6.3 54 4.6 N 24 35 13 19 1026.7 1026.7 0.0
18/09:00am 13.6 7.7 3.7 51 4.6 NNE 24 35 13 19 1026.7 1026.7 0.2
18/08:30am 12.8 7.8 4.5 57 3.9 NNE 20 28 11 15 1026.5 1026.5 0.2

Other Formats:

Comma delimited format used in spreadsheet applications
http://www.bom.gov.au/fwo/IDV60801/IDV60801.94852.axf

JavaScript Object Notation format (JSON) in row-major order
http://www.bom.gov.au/fwo/IDV60801/IDV60801.94852.json